Funds performance table by strategy

help icon
fund name 1 mthsort icon 3 mth 12 mth ytd Inception Net assets Return Date
CFS FC W Pen-FirstChoice W Glb Infrastr 3% 0% 23% 14% 3% 507M 2013-07-31
Huysamer Equity Prescient B2 3% 4% 12% 5% 11% 16M 2015-02-28
Perpetual Wholesale Concentrated Equity 3% 5% 30% 17% 12% 1048M 2013-08-31
Fidelity Instl Pacific ex Japan 3% 5% 14% 5% 9% 109M 2015-02-28
QS Legg Mason Target Retirement 2020 IS 3% 11% -10% 18% -10% - 2009-08-31
Parvest Equity Switzerland I 3% 8% 42% 20% 1% 65M 2013-05-31
TIAA-CREF Lifecycle 2020 Instl 3% 2% 6% 3% 5% - 2015-02-28
ComStage FTSE 100 TR ETF 3% 3% 5% 6% 11% 7M 2015-02-28
Lyxor ETF FTSE 100 C-GBP 3% 3% 5% 6% 4% 428M 2015-02-28
AMP Capital Global Shares Fund 3% 5% 17% 6% 6% 158M 2015-02-28
EdR Patrimoine ID 3% 7% 12% 6% 5% 113M 2015-02-28
TIAA-CREF Lifecycle 2020 Premier 3% 2% 6% 3% 10% - 2015-02-28
Ariel Discovery Institutional 3% 1% -9% -1% 11% - 2015-02-28
JB Inst BVG LPP 40 CHF A1 3% 0% 7% 0% 5% 27M 2015-02-28
Stone Harbor Emg Mkts Total Income 3% -8% -4% 0% -6% - 2015-02-28
Henderson Multi-Manager Active I Acc 3% 2% 6% 5% 7% 241M 2014-11-30
Momentum MoM Emerg Mgr Growth F1 3% 11% 0% 10% 16% 1423M 2015-02-28
QS Batterymarch International Div IS 3% 3% 9% 5% 10% - 2015-02-28
Investec Emerg Mkts Blnded Dbt S Grs Acc 3% 4% 2% 9% 1% 50M 2014-10-31
ANZ OA PS-MoneyForLife Index Bal NE 3% 4% 8% 4% 6% - 2015-02-28
Hanwha PF Investment Pool Bond 10-9 3% 4% 0% 5% 2% 4295M 2015-02-28
Hartford Long/Short Global Equity I 3% 6% 0% 4% 2% - 2015-02-28
Hartford Long/Short Global Equity Y 3% 6% 0% 4% 2% - 2015-02-28
MobiFonds Select 50 B 3% 2% 8% 2% 7% 85M 2015-02-28
Pictet EUR High Yield I JPY Pic 3% -7% -1% -4% 2% 4295M 2015-02-28
Seminole Offshore Fund Ltd 3% 4% 16% 10% 0% - 2010-10-31
MirAlt Sicav Diversified USD 3% 10% -4% -2% 0% 27M 2010-10-31
Thames River Property Investment Trust 3% 6% 11% 6% 10% - 2011-03-31
iShares BM&FBOVESPA Consumo Index 3% -5% 19% 0% 14% 10M 2015-02-28
Coffee Can Fund 3% -11% -19% -9% 4% - 2015-02-28

All our data is licensed from Morningstar UK Ltd. Important legal information